createdAt,value
2019-06-26T00:00:18.712Z,10.93
2019-06-26T00:02:47.345Z,13.13
2019-06-26T00:05:16.187Z,11.45
2019-06-26T00:07:46.165Z,12.85
2019-06-26T00:10:14.799Z,12.75
2019-06-26T00:12:43.762Z,12.68
2019-06-26T00:15:12.818Z,12.15
2019-06-26T00:17:41.554Z,11.57
2019-06-26T00:20:10.295Z,12.82
2019-06-26T00:22:38.970Z,13.60
2019-06-26T00:25:07.820Z,13.03
2019-06-26T00:27:36.559Z,12.58
2019-06-26T00:30:08.862Z,12.18
2019-06-26T00:32:37.428Z,13.45
2019-06-26T00:35:06.569Z,13.93
2019-06-26T00:37:35.245Z,13.90
2019-06-26T00:40:05.205Z,15.00
2019-06-26T00:42:33.887Z,15.43
2019-06-26T00:45:02.541Z,15.10
2019-06-26T00:47:31.182Z,14.30
2019-06-26T00:49:59.828Z,15.30
2019-06-26T00:52:28.490Z,14.30
2019-06-26T00:54:56.990Z,13.62
2019-06-26T00:57:25.565Z,14.25
2019-06-26T00:59:54.321Z,14.38
2019-06-26T01:02:22.890Z,14.55
2019-06-26T01:04:53.033Z,14.65
2019-06-26T01:07:21.707Z,13.60
2019-06-26T01:09:50.343Z,13.20
2019-06-26T01:12:18.913Z,13.80
2019-06-26T01:14:47.474Z,13.20
2019-06-26T01:17:16.043Z,13.70
2019-06-26T01:19:44.804Z,13.70
2019-06-26T01:22:13.412Z,13.35
2019-06-26T01:24:41.990Z,13.50
2019-06-26T01:27:10.559Z,13.58
2019-06-26T01:29:39.239Z,13.25
2019-06-26T01:32:07.979Z,13.65
2019-06-26T01:34:36.482Z,13.60
2019-06-26T01:37:05.167Z,14.45
2019-06-26T01:39:33.813Z,14.28
2019-06-26T01:42:02.596Z,14.20
2019-06-26T01:44:31.277Z,14.38
2019-06-26T01:46:59.851Z,14.30
2019-06-26T01:49:28.495Z,14.38
2019-06-26T01:51:57.123Z,14.63
2019-06-26T01:54:25.610Z,15.70
2019-06-26T01:56:54.186Z,15.00
2019-06-26T01:59:22.865Z,14.53
2019-06-26T02:01:51.498Z,14.00
2019-06-26T02:04:20.223Z,12.95
2019-06-26T02:06:49.112Z,11.95
2019-06-26T02:09:17.617Z,12.00
2019-06-26T02:11:46.195Z,11.70
2019-06-26T02:14:30.031Z,12.13
2019-06-26T02:16:45.300Z,12.15
2019-06-26T02:19:15.543Z,10.95
2019-06-26T02:21:44.154Z,11.95
2019-06-26T02:24:12.799Z,11.63
2019-06-26T02:26:41.440Z,12.15
2019-06-26T02:29:10.211Z,12.15
2019-06-26T02:31:38.932Z,12.65
2019-06-26T02:34:07.610Z,10.88
2019-06-26T02:36:36.208Z,12.25
2019-06-26T02:39:06.657Z,11.15
2019-06-26T02:41:35.889Z,12.23
2019-06-26T02:44:04.977Z,12.15
2019-06-26T02:46:33.719Z,12.95
2019-06-26T02:49:02.366Z,11.30
2019-06-26T02:51:30.986Z,11.70
2019-06-26T02:53:59.582Z,16.73
2019-06-26T02:56:28.151Z,12.25
2019-06-26T02:58:56.863Z,14.95
2019-06-26T03:01:25.663Z,12.73
2019-06-26T03:03:54.241Z,11.95
2019-06-26T03:06:22.916Z,11.50
2019-06-26T03:08:51.556Z,11.95
2019-06-26T03:11:20.895Z,12.75
2019-06-26T03:13:49.620Z,13.53
2019-06-26T03:16:18.244Z,17.30
2019-06-26T03:18:46.905Z,12.25
2019-06-26T03:21:15.517Z,13.18
2019-06-26T03:23:44.106Z,12.68
2019-06-26T03:26:12.939Z,14.13
2019-06-26T03:28:41.530Z,10.28
2019-06-26T03:31:10.168Z,16.87
2019-06-26T03:33:38.807Z,9.95
2019-06-26T03:36:07.451Z,10.32
2019-06-26T03:38:35.942Z,13.05
2019-06-26T03:41:04.617Z,20.88
2019-06-26T03:43:35.411Z,10.30
2019-06-26T03:46:03.603Z,8.70
2019-06-26T03:48:32.135Z,13.60
2019-06-26T03:51:00.779Z,15.38
2019-06-26T03:53:29.495Z,7.83
2019-06-26T03:55:58.267Z,7.45
2019-06-26T03:58:26.764Z,7.25
2019-06-26T04:00:55.404Z,9.28
2019-06-26T04:03:24.005Z,6.15
2019-06-26T04:05:52.576Z,7.25
2019-06-26T04:08:21.213Z,6.45
2019-06-26T04:10:49.979Z,19.12
2019-06-26T04:13:18.637Z,7.53
2019-06-26T04:15:50.702Z,7.95
2019-06-26T04:18:17.598Z,8.33
2019-06-26T04:20:46.162Z,8.43
2019-06-26T04:23:14.679Z,10.15
2019-06-26T04:25:43.379Z,10.03
2019-06-26T04:28:12.852Z,9.75
2019-06-26T04:30:41.355Z,12.00
2019-06-26T04:33:09.963Z,10.03
2019-06-26T04:35:38.621Z,20.32
2019-06-26T04:38:07.251Z,8.03
2019-06-26T04:40:35.878Z,9.60
2019-06-26T04:43:04.502Z,9.10
2019-06-26T04:45:33.071Z,14.65
2019-06-26T04:48:01.663Z,8.80
2019-06-26T04:50:30.326Z,7.85
2019-06-26T04:52:58.942Z,8.83
2019-06-26T04:55:27.656Z,8.08
2019-06-26T04:57:56.148Z,7.72
2019-06-26T05:00:25.184Z,9.48
2019-06-26T05:02:53.859Z,10.23
2019-06-26T05:05:38.210Z,11.15
2019-06-26T05:07:53.806Z,10.98
2019-06-26T05:10:22.556Z,10.35
2019-06-26T05:12:51.230Z,11.20
2019-06-26T05:15:20.054Z,13.40
2019-06-26T05:17:48.679Z,12.20
2019-06-26T05:20:17.512Z,13.08
2019-06-26T05:22:46.117Z,11.97
2019-06-26T05:25:15.432Z,11.95
2019-06-26T05:27:44.074Z,14.07
2019-06-26T05:30:13.141Z,10.70
2019-06-26T05:32:41.820Z,11.35
2019-06-26T05:35:10.724Z,11.43
2019-06-26T05:37:39.433Z,11.18
2019-06-26T05:40:10.728Z,10.72
2019-06-26T05:42:39.355Z,10.05
2019-06-26T05:45:08.823Z,11.25
2019-06-26T05:47:37.469Z,10.43
2019-06-26T05:50:08.064Z,11.90
2019-06-26T05:52:36.734Z,9.60
2019-06-26T05:55:06.759Z,10.15
2019-06-26T05:57:35.386Z,10.00
2019-06-26T06:00:09.144Z,9.28
2019-06-26T06:02:37.774Z,9.75
2019-06-26T06:05:08.118Z,10.53
2019-06-26T06:07:36.727Z,10.10
2019-06-26T06:10:09.422Z,10.13
2019-06-26T06:12:38.055Z,11.45
2019-06-26T06:15:08.035Z,9.78
2019-06-26T06:17:37.082Z,10.68
2019-06-26T06:20:07.521Z,10.40
2019-06-26T06:22:36.220Z,12.70
2019-06-26T06:25:06.442Z,9.33
2019-06-26T06:27:34.934Z,10.43
2019-06-26T06:30:05.417Z,11.15
2019-06-26T06:32:34.048Z,10.50
2019-06-26T06:35:02.611Z,11.57
2019-06-26T06:37:31.132Z,9.98
2019-06-26T06:39:59.769Z,10.50
2019-06-26T06:42:28.395Z,10.65
2019-06-26T06:44:56.993Z,10.65
2019-06-26T06:47:25.554Z,9.90
2019-06-26T06:49:54.201Z,10.38
2019-06-26T06:52:22.883Z,12.68
2019-06-26T06:54:51.443Z,8.43
2019-06-26T06:57:20.097Z,7.47
2019-06-26T06:59:48.751Z,6.65
2019-06-26T07:02:17.393Z,7.40
2019-06-26T07:04:45.875Z,7.03
2019-06-26T07:07:14.539Z,6.70
2019-06-26T07:09:43.167Z,6.45
2019-06-26T07:12:11.796Z,10.68
2019-06-26T07:14:40.336Z,6.40
2019-06-26T07:17:19.900Z,6.78
2019-06-26T07:19:39.318Z,6.67
2019-06-26T07:22:07.906Z,7.70
2019-06-26T07:24:36.547Z,7.40
2019-06-26T07:27:05.168Z,6.50
2019-06-26T07:29:33.760Z,6.28
2019-06-26T07:32:02.367Z,9.25
2019-06-26T07:34:30.985Z,7.33
2019-06-26T07:36:59.652Z,7.10
2019-06-26T07:39:28.287Z,7.05
2019-06-26T07:41:56.830Z,6.10
2019-06-26T07:44:25.465Z,6.37
2019-06-26T07:46:54.090Z,7.60
2019-06-26T07:49:22.681Z,8.55
2019-06-26T07:51:51.247Z,7.25
2019-06-26T07:54:19.876Z,6.58
2019-06-26T07:56:48.589Z,7.00
2019-06-26T07:59:17.155Z,6.53
2019-06-26T08:01:45.809Z,8.30
2019-06-26T08:04:14.339Z,8.03
2019-06-26T08:06:42.955Z,7.37
2019-06-26T08:09:11.584Z,10.08
2019-06-26T08:11:40.255Z,7.10
2019-06-26T08:14:08.813Z,8.23
2019-06-26T08:16:37.302Z,7.50
2019-06-26T08:19:05.976Z,8.53
2019-06-26T08:21:34.599Z,8.15
2019-06-26T08:24:03.101Z,7.47
2019-06-26T08:26:31.610Z,8.30
2019-06-26T08:29:00.243Z,7.60
2019-06-26T08:31:28.967Z,7.00
2019-06-26T08:33:57.492Z,7.45
2019-06-26T08:36:25.994Z,8.50
2019-06-26T08:38:54.617Z,8.70
2019-06-26T08:41:23.234Z,7.22
2019-06-26T08:43:51.863Z,7.65
2019-06-26T08:46:20.481Z,7.55
2019-06-26T08:48:51.900Z,7.70
2019-06-26T08:51:19.547Z,11.75
2019-06-26T08:53:48.131Z,7.80
2019-06-26T08:56:16.802Z,7.90
2019-06-26T08:58:45.285Z,8.73
2019-06-26T09:01:13.803Z,8.35
2019-06-26T09:03:42.551Z,7.95
2019-06-26T09:06:11.178Z,7.85
2019-06-26T09:08:39.670Z,8.80
2019-06-26T09:11:08.190Z,8.33
2019-06-26T09:13:36.824Z,9.28
2019-06-26T09:16:05.447Z,10.90
2019-06-26T09:18:35.755Z,8.80
2019-06-26T09:21:04.380Z,8.13
2019-06-26T09:23:32.891Z,8.00
2019-06-26T09:26:01.505Z,9.63
2019-06-26T09:28:30.122Z,8.30
2019-06-26T09:30:58.750Z,7.70
2019-06-26T09:33:27.351Z,7.22
2019-06-26T09:35:56.090Z,6.95
2019-06-26T09:38:24.725Z,7.37
2019-06-26T09:40:53.414Z,12.13
2019-06-26T09:43:21.916Z,7.75
2019-06-26T09:45:50.402Z,6.83
2019-06-26T09:48:19.072Z,7.30
2019-06-26T09:50:47.689Z,7.40
2019-06-26T09:53:16.277Z,6.78
2019-06-26T09:55:44.926Z,5.78
2019-06-26T09:58:13.823Z,6.78
2019-06-26T10:00:42.502Z,6.53
2019-06-26T10:03:11.231Z,6.58
2019-06-26T10:05:39.860Z,6.67
2019-06-26T10:08:08.354Z,6.10
2019-06-26T10:10:36.952Z,7.08
2019-06-26T10:13:05.571Z,7.55
2019-06-26T10:15:34.185Z,7.15
2019-06-26T10:18:02.786Z,6.20
2019-06-26T10:20:31.267Z,7.60
2019-06-26T10:22:59.919Z,6.72
2019-06-26T10:25:28.567Z,6.62
2019-06-26T10:27:57.123Z,6.55
2019-06-26T10:30:25.748Z,6.75
2019-06-26T10:32:54.413Z,7.08
2019-06-26T10:35:23.041Z,7.28
2019-06-26T10:37:51.613Z,6.70
2019-06-26T10:40:20.699Z,6.00
2019-06-26T10:42:49.245Z,5.97
2019-06-26T10:45:18.274Z,5.92
2019-06-26T10:47:46.944Z,5.47
2019-06-26T10:50:16.254Z,5.70
2019-06-26T10:52:44.948Z,5.40
2019-06-26T10:55:13.705Z,5.90
2019-06-26T10:57:42.344Z,5.33
2019-06-26T11:00:11.809Z,5.83
2019-06-26T11:02:40.485Z,5.45
2019-06-26T11:05:09.807Z,6.55
2019-06-26T11:07:38.440Z,6.95
2019-06-26T11:10:08.717Z,6.33
2019-06-26T11:12:37.357Z,5.92
2019-06-26T11:15:07.719Z,6.62
2019-06-26T11:17:36.448Z,6.58
2019-06-26T11:20:07.723Z,5.40
2019-06-26T11:22:36.492Z,5.67
2019-06-26T11:25:07.250Z,6.60
2019-06-26T11:27:35.867Z,5.83
2019-06-26T11:30:09.615Z,5.80
2019-06-26T11:32:38.291Z,5.85
2019-06-26T11:35:07.929Z,5.42
2019-06-26T11:37:36.749Z,5.65
2019-06-26T11:40:09.332Z,5.22
2019-06-26T11:42:37.953Z,5.83
2019-06-26T11:45:09.842Z,5.92
2019-06-26T11:47:38.599Z,6.55
2019-06-26T11:50:11.650Z,4.12
2019-06-26T11:52:40.698Z,6.25
2019-06-26T11:55:09.766Z,6.17
2019-06-26T11:57:38.389Z,6.45
2019-06-26T12:00:09.878Z,7.05
2019-06-26T12:02:38.464Z,5.60
2019-06-26T12:05:07.934Z,5.45
2019-06-26T12:07:36.641Z,5.78
2019-06-26T12:10:09.777Z,5.62
2019-06-26T12:12:38.638Z,6.70
2019-06-26T12:15:07.766Z,6.78
2019-06-26T12:17:36.443Z,6.55
2019-06-26T12:20:17.837Z,5.37
2019-06-26T12:22:37.559Z,5.58
2019-06-26T12:25:07.077Z,5.25
2019-06-26T12:27:35.688Z,5.10
2019-06-26T12:30:06.115Z,5.80
2019-06-26T12:32:41.878Z,4.92
2019-06-26T12:35:06.436Z,5.60
2019-06-26T12:37:38.091Z,5.08
2019-06-26T12:40:07.373Z,4.45
2019-06-26T12:42:35.937Z,4.22
2019-06-26T12:45:07.097Z,3.77
2019-06-26T12:47:35.757Z,5.15
2019-06-26T12:50:06.781Z,4.60
2019-06-26T12:52:35.343Z,4.87
2019-06-26T12:55:07.875Z,4.53
2019-06-26T12:57:36.506Z,6.33
2019-06-26T13:00:09.666Z,5.00
2019-06-26T13:02:38.146Z,5.05
2019-06-26T13:05:07.612Z,5.08
2019-06-26T13:07:36.279Z,4.90
2019-06-26T13:10:07.745Z,4.95
2019-06-26T13:12:36.836Z,5.00
2019-06-26T13:15:07.633Z,4.33
2019-06-26T13:17:36.289Z,6.90
2019-06-26T13:20:10.162Z,6.40
2019-06-26T13:22:38.367Z,7.45
2019-06-26T13:25:10.169Z,4.83
2019-06-26T13:27:38.799Z,4.80
2019-06-26T13:30:08.373Z,4.33
2019-06-26T13:32:36.997Z,5.12
2019-06-26T13:35:08.706Z,4.85
2019-06-26T13:37:37.424Z,4.70
2019-06-26T13:40:07.566Z,6.05
2019-06-26T13:42:36.195Z,6.15
2019-06-26T13:45:07.199Z,5.10
2019-06-26T13:47:35.780Z,4.60
2019-06-26T13:50:08.824Z,5.12
2019-06-26T13:52:37.556Z,4.37
2019-06-26T13:55:06.885Z,4.35
2019-06-26T13:57:35.554Z,3.65
2019-06-26T14:00:06.586Z,4.37
2019-06-26T14:02:35.145Z,3.85
2019-06-26T14:05:03.864Z,4.50
2019-06-26T14:07:32.463Z,4.62
2019-06-26T14:10:01.180Z,3.90
2019-06-26T14:12:29.694Z,4.30
2019-06-26T14:14:58.431Z,4.67
2019-06-26T14:17:27.056Z,4.85
2019-06-26T14:19:55.741Z,4.83
2019-06-26T14:22:24.380Z,4.58
2019-06-26T14:24:54.259Z,4.22
2019-06-26T14:27:23.102Z,4.53
2019-06-26T14:29:51.735Z,5.40
2019-06-26T14:32:20.350Z,3.87
2019-06-26T14:34:48.885Z,4.40
2019-06-26T14:37:17.541Z,3.75
2019-06-26T14:39:46.090Z,4.47
2019-06-26T14:42:14.745Z,4.85
2019-06-26T14:44:43.301Z,4.78
2019-06-26T14:47:11.854Z,5.35
2019-06-26T14:49:40.502Z,4.80
2019-06-26T14:52:09.146Z,4.97
2019-06-26T14:54:37.778Z,4.70
2019-06-26T14:57:06.369Z,5.72
2019-06-26T14:59:34.895Z,4.35
2019-06-26T15:02:03.529Z,4.22
2019-06-26T15:04:32.198Z,3.77
2019-06-26T15:07:00.703Z,4.10
2019-06-26T15:09:29.265Z,3.80
2019-06-26T15:11:57.901Z,4.28
2019-06-26T15:14:26.527Z,4.40
2019-06-26T15:16:55.055Z,4.53
2019-06-26T15:19:23.802Z,4.37
2019-06-26T15:21:58.350Z,3.95
2019-06-26T15:24:22.615Z,4.55
2019-06-26T15:26:51.298Z,4.28
2019-06-26T15:29:19.925Z,4.95
2019-06-26T15:31:48.455Z,5.12
2019-06-26T15:34:16.942Z,4.55
2019-06-26T15:36:45.632Z,4.62
2019-06-26T15:39:14.347Z,4.45
2019-06-26T15:41:42.843Z,5.03
2019-06-26T15:44:11.483Z,4.80
2019-06-26T15:46:40.155Z,4.80
2019-06-26T15:49:08.877Z,4.97
2019-06-26T15:51:37.457Z,4.62
2019-06-26T15:54:06.133Z,4.65
2019-06-26T15:56:34.773Z,8.70
2019-06-26T15:59:03.265Z,4.37
2019-06-26T16:01:31.932Z,4.33
2019-06-26T16:04:00.575Z,4.60
2019-06-26T16:06:29.125Z,4.50
2019-06-26T16:08:57.653Z,5.20
2019-06-26T16:11:26.382Z,5.03
2019-06-26T16:13:55.012Z,4.58
2019-06-26T16:16:24.408Z,5.40
2019-06-26T16:18:54.547Z,4.67
2019-06-26T16:21:23.179Z,5.67
2019-06-26T16:23:51.898Z,4.85
2019-06-26T16:26:20.387Z,5.17
2019-06-26T16:28:48.948Z,6.70
2019-06-26T16:31:17.706Z,5.45
2019-06-26T16:33:46.330Z,6.08
2019-06-26T16:36:15.057Z,5.15
2019-06-26T16:38:43.718Z,6.08
2019-06-26T16:41:12.348Z,8.00
2019-06-26T16:43:40.846Z,5.50
2019-06-26T16:46:09.534Z,6.35
2019-06-26T16:48:38.190Z,5.58
2019-06-26T16:51:06.814Z,6.45
2019-06-26T16:53:35.782Z,6.53
2019-06-26T16:56:04.460Z,7.67
2019-06-26T16:58:33.108Z,6.00
2019-06-26T17:01:01.701Z,7.25
2019-06-26T17:03:30.193Z,6.42
2019-06-26T17:05:58.834Z,6.03
2019-06-26T17:08:27.545Z,7.10
2019-06-26T17:10:56.071Z,6.53
2019-06-26T17:13:24.630Z,7.12
2019-06-26T17:15:53.291Z,6.85
2019-06-26T17:18:21.915Z,6.50
2019-06-26T17:20:50.562Z,6.95
2019-06-26T17:23:19.188Z,7.37
2019-06-26T17:25:47.868Z,7.30
2019-06-26T17:28:16.515Z,7.75
2019-06-26T17:30:45.337Z,8.05
2019-06-26T17:33:13.842Z,6.90
2019-06-26T17:35:42.574Z,7.75
2019-06-26T17:38:11.243Z,7.75
2019-06-26T17:40:39.793Z,8.08
2019-06-26T17:43:12.783Z,6.85
2019-06-26T17:45:38.660Z,7.95
2019-06-26T17:48:07.292Z,8.20
2019-06-26T17:50:35.787Z,7.97
2019-06-26T17:53:17.502Z,8.30
2019-06-26T17:55:34.749Z,8.45
2019-06-26T17:58:03.275Z,8.75
2019-06-26T18:00:36.399Z,8.73
2019-06-26T18:03:05.527Z,10.80
2019-06-26T18:05:34.090Z,8.10
2019-06-26T18:08:02.626Z,8.38
2019-06-26T18:10:31.248Z,8.58
2019-06-26T18:12:59.882Z,8.93
2019-06-26T18:15:28.405Z,7.90
2019-06-26T18:17:57.038Z,8.78
2019-06-26T18:20:25.688Z,8.78
2019-06-26T18:23:06.386Z,8.50
2019-06-26T18:25:26.821Z,8.85
2019-06-26T18:27:55.316Z,8.53
2019-06-26T18:30:24.184Z,9.83
2019-06-26T18:32:52.826Z,9.08
2019-06-26T18:35:21.452Z,9.85
2019-06-26T18:37:50.116Z,9.28
2019-06-26T18:40:18.787Z,8.80
2019-06-26T18:42:47.277Z,9.40
2019-06-26T18:45:15.966Z,9.30
2019-06-26T18:47:44.603Z,9.45
2019-06-26T18:50:13.931Z,8.88
2019-06-26T18:52:42.508Z,10.15
2019-06-26T18:55:11.155Z,11.70
2019-06-26T18:57:39.845Z,13.15
2019-06-26T19:00:09.228Z,11.70
2019-06-26T19:02:37.789Z,10.90
2019-06-26T19:05:08.138Z,11.65
2019-06-26T19:07:36.807Z,11.83
2019-06-26T19:10:07.961Z,11.28
2019-06-26T19:12:37.896Z,12.15
2019-06-26T19:15:07.162Z,12.23
2019-06-26T19:17:35.911Z,12.33
2019-06-26T19:20:06.779Z,9.25
2019-06-26T19:22:35.437Z,8.70
2019-06-26T19:25:05.473Z,8.05
2019-06-26T19:27:33.970Z,8.78
2019-06-26T19:30:03.080Z,8.48
2019-06-26T19:32:31.725Z,8.65
2019-06-26T19:35:08.181Z,8.73
2019-06-26T19:37:30.547Z,8.95
2019-06-26T19:39:59.168Z,8.55
2019-06-26T19:42:27.904Z,8.08
2019-06-26T19:44:56.449Z,7.97
2019-06-26T19:47:24.941Z,8.38
2019-06-26T19:49:53.580Z,8.58
2019-06-26T19:52:22.237Z,8.30
2019-06-26T19:54:50.736Z,9.50
2019-06-26T19:57:19.372Z,10.32
2019-06-26T19:59:48.054Z,8.73
2019-06-26T20:02:16.688Z,9.03
2019-06-26T20:04:48.145Z,9.00
2019-06-26T20:07:15.667Z,9.40
2019-06-26T20:09:44.285Z,8.13
2019-06-26T20:12:12.948Z,9.25
2019-06-26T20:14:41.521Z,8.23
2019-06-26T20:17:10.078Z,8.08
2019-06-26T20:19:38.716Z,11.65
2019-06-26T20:22:07.968Z,7.28
2019-06-26T20:24:43.977Z,6.97
2019-06-26T20:27:06.724Z,8.20
2019-06-26T20:29:35.456Z,8.18
2019-06-26T20:32:04.021Z,7.40
2019-06-26T20:34:32.513Z,8.15
2019-06-26T20:37:01.200Z,7.97
2019-06-26T20:39:29.766Z,8.58
2019-06-26T20:41:58.345Z,8.73
2019-06-26T20:44:27.003Z,9.68
2019-06-26T20:46:55.644Z,9.00
2019-06-26T20:49:24.185Z,10.95
2019-06-26T20:51:53.422Z,11.22
2019-06-26T20:54:22.061Z,11.30
2019-06-26T20:56:50.701Z,13.45
2019-06-26T20:59:19.321Z,12.88
2019-06-26T21:01:47.833Z,14.00
2019-06-26T21:04:16.457Z,13.83
2019-06-26T21:06:45.145Z,13.72
2019-06-26T21:09:13.646Z,14.58
2019-06-26T21:11:42.201Z,14.55
2019-06-26T21:14:10.888Z,14.35
2019-06-26T21:16:39.550Z,14.23
2019-06-26T21:19:08.701Z,15.03
2019-06-26T21:21:37.580Z,14.55
2019-06-26T21:24:06.242Z,14.45
2019-06-26T21:26:34.819Z,13.83
2019-06-26T21:29:03.516Z,14.68
2019-06-26T21:31:32.139Z,16.30
2019-06-26T21:34:01.318Z,21.95
2019-06-26T21:36:29.914Z,23.52
2019-06-26T21:38:58.585Z,28.77
2019-06-26T21:41:27.218Z,25.57
2019-06-26T21:43:55.788Z,25.90
2019-06-26T21:46:24.285Z,24.05
2019-06-26T21:48:52.959Z,23.67
2019-06-26T21:51:21.604Z,25.30
2019-06-26T21:53:50.111Z,27.40
2019-06-26T21:56:18.934Z,23.65
2019-06-26T21:58:47.437Z,21.87
2019-06-26T22:01:16.012Z,22.02
2019-06-26T22:03:44.759Z,23.67
2019-06-26T22:06:13.497Z,25.75
2019-06-26T22:08:41.998Z,24.30
2019-06-26T22:11:10.528Z,23.05
2019-06-26T22:13:39.168Z,24.47
2019-06-26T22:16:07.918Z,26.23
2019-06-26T22:18:36.461Z,28.40
2019-06-26T22:21:05.191Z,27.25
2019-06-26T22:23:33.844Z,27.02
2019-06-26T22:26:02.576Z,25.90
2019-06-26T22:28:31.147Z,25.77
2019-06-26T22:30:59.797Z,25.02
2019-06-26T22:33:28.475Z,21.62
2019-06-26T22:35:57.116Z,20.82
2019-06-26T22:38:25.761Z,22.62
2019-06-26T22:40:54.430Z,24.70
2019-06-26T22:43:23.083Z,19.73
2019-06-26T22:45:51.731Z,19.30
2019-06-26T22:48:20.338Z,20.55
2019-06-26T22:50:49.001Z,22.93
2019-06-26T22:53:17.695Z,18.48
2019-06-26T22:55:46.457Z,17.55
2019-06-26T22:58:15.096Z,21.93
2019-06-26T23:00:46.850Z,17.82
2019-06-26T23:03:14.142Z,22.93
2019-06-26T23:05:42.793Z,21.48
2019-06-26T23:08:11.377Z,35.10
2019-06-26T23:10:39.897Z,20.50
2019-06-26T23:13:09.687Z,18.17
2019-06-26T23:15:38.474Z,17.17
2019-06-26T23:18:07.114Z,17.35
2019-06-26T23:20:35.761Z,18.52
2019-06-26T23:23:04.341Z,16.82
2019-06-26T23:25:32.859Z,20.65
2019-06-26T23:28:01.540Z,16.85
2019-06-26T23:30:30.198Z,17.87
2019-06-26T23:32:58.704Z,18.77
2019-06-26T23:35:27.328Z,16.97
2019-06-26T23:37:55.981Z,17.82
2019-06-26T23:40:24.632Z,17.77
2019-06-26T23:42:53.231Z,17.42
2019-06-26T23:45:21.807Z,16.25
2019-06-26T23:47:50.449Z,16.48
2019-06-26T23:50:19.141Z,16.20
2019-06-26T23:52:47.643Z,16.42
2019-06-26T23:55:16.286Z,17.40
2019-06-26T23:57:58.498Z,18.02
